KBYS/BYS METAR and TAF weather

Enter ICAO airport designator
Station Type Date Time Source
KBYS METAR 2018/07/21 00:55 UTC NOAA

KBYS 210055Z 07006G17KT 10SM FEW100 38/12 A2987 RMK AO2A PK WND 12028/0003 LTG DSNT NW SLP058 WND DATA ESTMD T03750116


Station Type Date Time Source
KBYS Decoded METAR 2018/07/21 00:55 UTC NOAA

Fort Irwin/Barstow, Bicycle Lake Army Airfield, CA, United States (KBYS) 35-17N 116-37W 716M
Jul 20, 2018 - 08:55 PM EDT / 2018.07.21 0055 UTC
Wind: from the ENE (070 degrees) at 7 MPH (6 KT) gusting to 20 MPH (17 KT):0
Visibility: 10 mile(s):0
Sky conditions: mostly clear
Weather: Lightning observed
Temperature: 99.5 F (37.5 C)
Heat index: 97.2 F (36.2 C):1
Dew Point: 52.9 F (11.6 C)
Relative Humidity: 21%
Pressure (altimeter): 29.87 in. Hg (1011 hPa)
ob: KBYS 210055Z 07006G17KT 10SM FEW100 38/12 A2987 RMK AO2A PK WND 12028/0003 LTG DSNT NW SLP058 WND DATA ESTMD T03750116
cycle: 1

Station Type Date Time Source
KBYS TAF 2011/12/24 07:07 UTC NOAA

TAF KBYS 250707 04010G15KT 9999 FEW250 QNH3014INS
BECMG 1213 06010KT 9999 FEW250 QNH3014INS
BECMG 1819 08010KT 9999 FEW250 QNH3023INS T14/23Z T02/14Z
BECMG 0001 VRB05KT 9999 FEW250 QNH3018INS
BECMG 0607 27005KT 9999 FEW200 QNH3014INS
BECMG 1213 27010KT 9999 SCT200 SCT200 QNH3014INS
BECMG 1819 27010G15KT 9999 SCT200 QNH3023INS T15/23Z T03/14Z
BECMG 0001 27010G15KT 9999 SCT200 QNH3018INS
BECMG 0607 27010KT 9999 FEW200 QNH3014INS
BECMG 1213 27010KT 9999 FEW200 QNH3014INS
BECMG 1819 29010G15KT 9999 FEW250 QNH3023INS T16/23Z T04/14Z
BECMG 0001 33010G15KT 9999 FEW250 QNH3018INS
BECMG 0607 33010KT 9999 SCT250 QNH3014INS
BECMG 1213 36010KT 9999 SCT250 QNH3014INS
BECMG 1819 02010KT 9999 SCT250 QNH3023INS T16/23Z T05/14Z
BECMG 0001 04010KT 9999 SCT250 QNH3018INS
BECMG 0607 04010KT 9999 FEW250 QNH3014INS
BECMG 1213 04010KT 9999 FEW250 QNH3014INS
BECMG 1819 04010G15KT 9999 FEW250 QNH3023INS T16/23Z T05/14Z
BECMG 0001 04010G15KT 9999 FEW250 QNH3018INS


Example: see airport list